createdAt,value
2022-10-31T00:01:21.491Z,2.90
2022-10-31T00:03:48.686Z,2.75
2022-10-31T00:06:19.064Z,2.22
2022-10-31T00:08:53.764Z,2.08
2022-10-31T00:11:20.955Z,2.30
2022-10-31T00:13:47.698Z,2.00
2022-10-31T00:16:19.586Z,2.30
2022-10-31T00:18:50.702Z,2.53
2022-10-31T00:21:17.762Z,1.90
2022-10-31T00:23:44.595Z,2.05
2022-10-31T00:26:11.474Z,2.20
2022-10-31T00:28:38.404Z,2.17
2022-10-31T00:31:08.611Z,1.95
2022-10-31T00:33:37.643Z,2.10
2022-10-31T00:36:06.492Z,2.10
2022-10-31T00:38:33.362Z,1.77
2022-10-31T00:41:00.223Z,2.22
2022-10-31T00:43:26.986Z,2.30
2022-10-31T00:45:53.842Z,1.90
2022-10-31T00:48:20.573Z,1.92
2022-10-31T00:50:47.490Z,2.42
2022-10-31T00:53:14.303Z,2.50
2022-10-31T00:55:41.058Z,2.63
2022-10-31T00:58:07.939Z,2.50
2022-10-31T01:00:34.918Z,2.40
2022-10-31T01:03:02.292Z,2.22
2022-10-31T01:05:29.309Z,2.00
2022-10-31T01:07:56.075Z,2.15
2022-10-31T01:10:23.210Z,1.92
2022-10-31T01:12:50.663Z,2.67
2022-10-31T01:15:23.131Z,2.28
2022-10-31T01:17:50.830Z,3.03
2022-10-31T01:20:18.621Z,2.10
2022-10-31T01:22:45.516Z,2.10
2022-10-31T01:25:12.459Z,2.10
2022-10-31T01:27:39.300Z,2.58
2022-10-31T01:30:06.669Z,2.85
2022-10-31T01:32:33.447Z,2.35
2022-10-31T01:35:00.223Z,2.50
2022-10-31T01:37:27.021Z,2.72
2022-10-31T01:39:53.784Z,2.28
2022-10-31T01:42:23.160Z,2.35
2022-10-31T01:45:11.103Z,2.22
2022-10-31T01:47:45.854Z,2.25
2022-10-31T01:50:29.291Z,2.13
2022-10-31T01:52:56.561Z,1.95
2022-10-31T01:55:35.969Z,2.38
2022-10-31T01:58:14.120Z,1.95
2022-10-31T02:00:44.007Z,2.63
2022-10-31T02:03:11.245Z,2.25
2022-10-31T02:05:38.254Z,2.22
2022-10-31T02:08:17.334Z,2.40
2022-10-31T02:10:45.116Z,2.10
2022-10-31T02:13:13.921Z,2.20
2022-10-31T02:15:42.643Z,2.15
2022-10-31T02:18:10.138Z,2.53
2022-10-31T02:20:46.060Z,2.97
2022-10-31T02:26:28.343Z,2.30
2022-10-31T02:29:28.467Z,2.07
2022-10-31T02:32:01.061Z,1.92
2022-10-31T02:34:48.059Z,2.72
2022-10-31T02:37:27.497Z,2.80
2022-10-31T02:40:23.408Z,2.17
2022-10-31T02:43:19.544Z,2.00
2022-10-31T02:45:58.554Z,2.22
2022-10-31T02:48:29.679Z,2.50
2022-10-31T02:51:00.576Z,1.95
2022-10-31T02:53:27.836Z,2.28
2022-10-31T02:56:00.247Z,1.98
2022-10-31T02:58:32.402Z,2.20
2022-10-31T03:01:10.909Z,2.20
2022-10-31T03:04:08.630Z,2.33
2022-10-31T03:06:57.158Z,2.20
2022-10-31T03:09:29.401Z,2.70
2022-10-31T03:12:17.700Z,2.78
2022-10-31T03:14:53.137Z,2.50
2022-10-31T03:17:46.506Z,2.47
2022-10-31T03:20:13.356Z,2.85
2022-10-31T03:22:43.380Z,2.45
2022-10-31T03:25:10.824Z,2.28
2022-10-31T03:27:40.236Z,2.50
2022-10-31T03:30:08.904Z,3.17
2022-10-31T03:32:51.571Z,2.17
2022-10-31T03:35:21.875Z,2.03
2022-10-31T03:37:50.612Z,2.35
2022-10-31T03:40:21.597Z,1.88
2022-10-31T03:42:55.061Z,1.92
2022-10-31T03:45:28.113Z,1.92
2022-10-31T03:47:56.069Z,1.48
2022-10-31T03:50:25.338Z,1.50
2022-10-31T03:53:14.444Z,1.10
2022-10-31T03:55:41.135Z,1.08
2022-10-31T03:58:24.736Z,1.17
2022-10-31T04:00:54.557Z,1.17
2022-10-31T04:03:28.286Z,1.40
2022-10-31T04:05:58.711Z,1.90
2022-10-31T04:08:29.273Z,4.60
2022-10-31T04:10:58.093Z,7.50
2022-10-31T04:13:28.960Z,3.33
2022-10-31T04:15:56.808Z,3.10
2022-10-31T04:18:24.683Z,3.47
2022-10-31T04:21:01.455Z,2.92
2022-10-31T04:23:29.187Z,2.88
2022-10-31T04:25:56.072Z,2.00
2022-10-31T04:28:23.402Z,1.40
2022-10-31T04:30:50.664Z,1.50
2022-10-31T04:33:17.884Z,1.20
2022-10-31T04:35:44.883Z,1.30
2022-10-31T04:38:11.785Z,1.08
2022-10-31T04:40:38.572Z,0.93
2022-10-31T04:43:05.449Z,0.90
2022-10-31T04:45:32.225Z,1.05
2022-10-31T04:47:59.241Z,1.00
2022-10-31T04:50:26.365Z,1.15
2022-10-31T04:52:53.176Z,1.05
2022-10-31T04:55:19.997Z,1.10
2022-10-31T04:57:49.458Z,0.90
2022-10-31T05:00:19.849Z,0.85
2022-10-31T05:02:55.213Z,0.90
2022-10-31T05:05:25.400Z,0.80
2022-10-31T05:07:52.995Z,1.10
2022-10-31T05:10:23.960Z,2.20
2022-10-31T05:12:53.372Z,4.38
2022-10-31T05:15:22.055Z,3.15
2022-10-31T05:17:49.704Z,1.42
2022-10-31T05:20:18.869Z,1.00
2022-10-31T05:22:47.574Z,0.95
2022-10-31T05:25:14.941Z,0.80
2022-10-31T05:27:43.255Z,1.02
2022-10-31T05:30:12.053Z,1.00
2022-10-31T05:32:47.311Z,0.93
2022-10-31T05:35:19.288Z,0.80
2022-10-31T05:37:46.290Z,0.68
2022-10-31T05:40:15.302Z,0.93
2022-10-31T05:42:42.948Z,0.63
2022-10-31T05:45:12.188Z,0.82
2022-10-31T05:47:39.099Z,0.90
2022-10-31T05:50:07.005Z,1.63
2022-10-31T05:52:34.321Z,1.40
2022-10-31T05:55:01.109Z,1.00
2022-10-31T05:57:29.000Z,0.70
2022-10-31T05:59:55.933Z,0.50
2022-10-31T06:02:22.785Z,0.57
2022-10-31T06:17:22.055Z,0.90
2022-10-31T06:22:20.619Z,1.25
2022-10-31T06:24:47.448Z,0.77
2022-10-31T06:27:14.216Z,0.70
2022-10-31T06:29:40.981Z,1.00
2022-10-31T06:32:11.434Z,1.75
2022-10-31T06:34:38.424Z,1.60
2022-10-31T06:37:10.491Z,0.90
2022-10-31T06:39:37.297Z,0.75
2022-10-31T06:42:04.775Z,0.50
2022-10-31T06:44:32.085Z,0.60
2022-10-31T06:46:58.913Z,0.70
2022-10-31T06:49:25.706Z,0.80
2022-10-31T06:51:52.613Z,0.70
2022-10-31T06:54:19.545Z,0.88
2022-10-31T06:56:49.308Z,0.80
2022-10-31T06:59:16.929Z,0.98
2022-10-31T07:01:43.929Z,0.95
2022-10-31T07:04:11.592Z,0.88
2022-10-31T07:06:38.543Z,0.70
2022-10-31T07:09:05.735Z,0.75
2022-10-31T07:11:32.582Z,1.08
2022-10-31T07:13:59.442Z,0.90
2022-10-31T07:16:26.986Z,0.77
2022-10-31T07:18:53.799Z,1.25
2022-10-31T07:21:20.632Z,1.00
2022-10-31T07:23:50.290Z,0.90
2022-10-31T07:26:17.086Z,0.90
2022-10-31T07:28:43.887Z,6.72
2022-10-31T07:31:10.718Z,1.08
2022-10-31T07:33:37.501Z,0.52
2022-10-31T07:36:04.415Z,0.65
2022-10-31T07:38:31.211Z,0.77
2022-10-31T07:40:58.203Z,0.70
2022-10-31T07:43:25.023Z,0.80
2022-10-31T07:45:53.292Z,0.50
2022-10-31T07:48:20.475Z,0.70
2022-10-31T07:50:47.452Z,0.80
2022-10-31T07:53:15.249Z,0.80
2022-10-31T07:55:42.597Z,0.75
2022-10-31T07:58:11.970Z,0.65
2022-10-31T08:00:40.877Z,1.00
2022-10-31T08:03:13.251Z,1.15
2022-10-31T08:05:42.144Z,1.80
2022-10-31T08:08:09.696Z,2.00
2022-10-31T08:10:37.199Z,3.08
2022-10-31T08:13:07.121Z,2.45
2022-10-31T08:15:37.929Z,1.83
2022-10-31T08:18:05.476Z,1.75
2022-10-31T08:20:32.361Z,1.73
2022-10-31T08:23:05.364Z,1.13
2022-10-31T08:25:37.349Z,1.00
2022-10-31T08:28:07.028Z,0.60
2022-10-31T08:30:35.938Z,0.82
2022-10-31T08:33:05.679Z,0.80
2022-10-31T08:35:33.623Z,0.60
2022-10-31T08:38:01.235Z,0.70
2022-10-31T08:40:31.219Z,0.85
2022-10-31T08:43:03.803Z,0.90
2022-10-31T08:45:32.622Z,1.08
2022-10-31T08:48:01.757Z,0.80
2022-10-31T08:50:30.592Z,1.00
2022-10-31T08:53:06.514Z,1.15
2022-10-31T08:55:37.577Z,2.20
2022-10-31T08:58:06.194Z,1.23
2022-10-31T09:00:34.579Z,1.77
2022-10-31T09:03:04.532Z,1.25
2022-10-31T09:05:31.664Z,1.20
2022-10-31T09:08:01.127Z,1.00
2022-10-31T09:10:29.254Z,1.02
2022-10-31T09:12:58.196Z,1.00
2022-10-31T09:15:25.792Z,0.80
2022-10-31T09:17:52.999Z,0.90
2022-10-31T09:20:20.500Z,1.05
2022-10-31T09:22:47.625Z,3.10
2022-10-31T09:25:14.857Z,1.00
2022-10-31T09:27:41.630Z,0.80
2022-10-31T09:30:08.945Z,1.00
2022-10-31T09:32:35.871Z,1.02
2022-10-31T09:35:05.010Z,1.10
2022-10-31T09:37:31.836Z,1.10
2022-10-31T09:39:58.691Z,0.80
2022-10-31T09:42:43.707Z,0.80
2022-10-31T09:45:22.430Z,0.82
2022-10-31T09:48:12.483Z,1.00
2022-10-31T09:50:48.609Z,0.80
2022-10-31T09:53:27.834Z,0.70
2022-10-31T09:55:56.079Z,1.15
2022-10-31T09:58:28.305Z,8.88
2022-10-31T10:00:59.592Z,1.77
2022-10-31T10:03:29.255Z,0.80
2022-10-31T10:06:06.141Z,0.85
2022-10-31T10:08:34.278Z,1.02
2022-10-31T10:11:19.147Z,1.50
2022-10-31T10:14:04.791Z,2.33
2022-10-31T10:17:06.711Z,1.00
2022-10-31T10:20:00.454Z,0.90
2022-10-31T10:22:41.318Z,0.80
2022-10-31T10:25:13.904Z,0.80
2022-10-31T10:28:02.200Z,0.90
2022-10-31T10:30:49.719Z,1.10
2022-10-31T10:33:24.909Z,1.00
2022-10-31T10:36:01.703Z,0.63
2022-10-31T10:38:46.765Z,1.00
2022-10-31T10:41:18.668Z,0.85
2022-10-31T10:46:37.264Z,0.90
2022-10-31T10:49:22.024Z,0.98
2022-10-31T10:52:07.466Z,4.82
2022-10-31T10:54:42.457Z,1.50
2022-10-31T10:57:43.078Z,1.25
2022-10-31T11:00:25.534Z,1.70
2022-10-31T11:02:53.076Z,1.98
2022-10-31T11:05:43.267Z,2.22
2022-10-31T11:08:10.463Z,2.42
2022-10-31T11:10:37.504Z,5.07
2022-10-31T11:13:18.617Z,4.57
2022-10-31T11:16:07.280Z,1.77
2022-10-31T11:18:38.894Z,2.55
2022-10-31T11:21:06.504Z,1.65
2022-10-31T11:23:34.363Z,3.78
2022-10-31T11:26:06.847Z,2.70
2022-10-31T11:28:38.021Z,2.10
2022-10-31T11:31:14.939Z,2.15
2022-10-31T11:33:50.256Z,1.70
2022-10-31T11:36:31.854Z,2.05
2022-10-31T11:39:00.767Z,2.05
2022-10-31T11:41:32.707Z,2.10
2022-10-31T11:44:06.243Z,1.50
2022-10-31T11:46:43.741Z,1.13
2022-10-31T11:49:51.542Z,3.95
2022-10-31T11:52:28.485Z,1.27
2022-10-31T11:54:55.610Z,1.08
2022-10-31T11:57:34.508Z,1.85
2022-10-31T12:00:04.559Z,2.90
2022-10-31T12:02:31.668Z,1.58
2022-10-31T12:05:35.357Z,1.75
2022-10-31T12:08:04.579Z,3.45
2022-10-31T12:11:00.660Z,2.60
2022-10-31T12:13:45.480Z,2.67
2022-10-31T12:16:37.908Z,1.35
2022-10-31T12:19:20.831Z,1.10
2022-10-31T12:22:06.998Z,1.10
2022-10-31T12:24:53.320Z,1.48
2022-10-31T12:30:19.627Z,1.05
2022-10-31T12:33:01.923Z,1.35
2022-10-31T12:35:54.596Z,1.65
2022-10-31T12:38:52.651Z,1.80
2022-10-31T12:41:22.139Z,1.10
2022-10-31T12:43:55.379Z,1.65
2022-10-31T12:46:43.385Z,1.30
2022-10-31T12:49:29.082Z,1.20
2022-10-31T12:52:23.165Z,1.15
2022-10-31T12:55:05.005Z,1.20
2022-10-31T12:57:45.488Z,1.40
2022-10-31T13:00:18.728Z,1.25
2022-10-31T13:03:16.917Z,1.13
2022-10-31T13:05:47.940Z,1.00
2022-10-31T13:08:21.145Z,1.10
2022-10-31T13:10:57.040Z,1.40
2022-10-31T13:16:20.699Z,1.15
2022-10-31T13:18:59.613Z,1.13
2022-10-31T13:21:40.966Z,1.50
2022-10-31T13:24:17.339Z,3.95
2022-10-31T13:27:30.898Z,1.52
2022-10-31T13:30:25.532Z,1.20
2022-10-31T13:33:12.521Z,1.65
2022-10-31T13:35:57.370Z,1.50
2022-10-31T13:38:28.372Z,1.90
2022-10-31T13:41:00.747Z,1.50
2022-10-31T13:44:18.439Z,1.50
2022-10-31T13:49:31.176Z,1.20
2022-10-31T13:52:13.346Z,2.33
2022-10-31T13:54:46.176Z,4.13
2022-10-31T13:57:21.375Z,1.70
2022-10-31T13:59:55.390Z,1.50
2022-10-31T14:02:31.477Z,2.03
2022-10-31T14:05:19.642Z,5.57
2022-10-31T14:07:47.700Z,5.43
2022-10-31T14:10:34.106Z,3.30
2022-10-31T14:15:39.079Z,2.03
2022-10-31T14:18:07.843Z,2.28
2022-10-31T14:20:41.579Z,1.65
2022-10-31T14:23:30.879Z,1.30
2022-10-31T14:26:27.391Z,1.45
2022-10-31T14:29:03.574Z,1.35
2022-10-31T14:31:39.672Z,1.67
2022-10-31T14:34:27.712Z,1.42
2022-10-31T14:37:03.522Z,1.70
2022-10-31T14:40:00.998Z,2.85
2022-10-31T14:42:49.419Z,2.45
2022-10-31T14:45:31.147Z,2.20
2022-10-31T14:48:34.746Z,2.08
2022-10-31T14:51:04.847Z,2.22
2022-10-31T14:53:37.884Z,1.75
2022-10-31T14:56:11.156Z,1.83
2022-10-31T14:58:40.734Z,1.80
2022-10-31T15:01:08.225Z,2.13
2022-10-31T15:03:36.768Z,2.03
2022-10-31T15:06:14.834Z,2.35
2022-10-31T15:08:48.965Z,2.10
2022-10-31T15:11:21.788Z,2.03
2022-10-31T15:13:53.465Z,1.95
2022-10-31T15:16:39.690Z,4.00
2022-10-31T15:19:11.065Z,3.13
2022-10-31T15:21:43.212Z,2.20
2022-10-31T15:24:16.908Z,4.20
2022-10-31T15:26:51.767Z,2.70
2022-10-31T15:29:24.233Z,2.85
2022-10-31T15:31:58.698Z,2.97
2022-10-31T15:34:40.157Z,2.58
2022-10-31T15:37:13.421Z,3.75
2022-10-31T15:39:40.901Z,3.13
2022-10-31T15:42:28.966Z,2.88
2022-10-31T15:45:06.092Z,2.50
2022-10-31T15:47:34.223Z,2.85
2022-10-31T15:50:02.820Z,2.67
2022-10-31T15:52:45.412Z,2.38
2022-10-31T15:55:22.650Z,2.50
2022-10-31T15:57:55.019Z,2.40
2022-10-31T16:00:34.226Z,2.13
2022-10-31T16:03:29.778Z,2.30
2022-10-31T16:05:59.396Z,2.38
2022-10-31T16:08:32.250Z,2.83
2022-10-31T16:11:04.019Z,2.83
2022-10-31T16:13:33.513Z,1.98
2022-10-31T16:16:33.969Z,2.65
2022-10-31T16:19:01.833Z,2.80
2022-10-31T16:21:38.921Z,2.60
2022-10-31T16:24:26.381Z,2.78
2022-10-31T16:26:55.912Z,2.60
2022-10-31T16:29:28.627Z,2.42
2022-10-31T16:31:55.679Z,2.47
2022-10-31T16:34:26.617Z,2.70
2022-10-31T16:36:53.982Z,2.97
2022-10-31T16:39:21.176Z,3.45
2022-10-31T16:41:51.742Z,4.13
2022-10-31T16:44:27.941Z,3.92
2022-10-31T16:47:12.760Z,4.22
2022-10-31T16:49:39.683Z,3.78
2022-10-31T16:52:06.465Z,4.10
2022-10-31T16:54:33.270Z,4.53
2022-10-31T16:57:01.014Z,4.20
2022-10-31T16:59:28.411Z,3.67
2022-10-31T17:01:56.343Z,4.10
2022-10-31T17:04:23.495Z,4.30
2022-10-31T17:06:50.310Z,4.32
2022-10-31T17:09:17.132Z,4.55
2022-10-31T17:11:49.711Z,4.68
2022-10-31T17:14:17.789Z,4.65
2022-10-31T17:16:44.597Z,4.30
2022-10-31T17:19:12.396Z,4.28
2022-10-31T17:21:40.086Z,3.95
2022-10-31T17:24:07.575Z,4.40
2022-10-31T17:26:34.454Z,4.20
2022-10-31T17:29:03.464Z,4.20
2022-10-31T17:31:32.600Z,5.25
2022-10-31T17:34:02.571Z,4.53
2022-10-31T17:36:30.955Z,4.03
2022-10-31T17:38:58.101Z,4.13
2022-10-31T17:41:24.983Z,4.03
2022-10-31T17:43:59.217Z,5.05
2022-10-31T17:46:26.502Z,5.32
2022-10-31T17:48:53.286Z,3.83
2022-10-31T17:51:20.096Z,4.40
2022-10-31T17:53:46.921Z,4.15
2022-10-31T17:56:13.766Z,4.90
2022-10-31T17:58:40.651Z,4.18
2022-10-31T18:01:10.580Z,3.80
2022-10-31T18:03:38.153Z,3.63
2022-10-31T18:06:05.652Z,3.80
2022-10-31T18:08:34.883Z,3.60
2022-10-31T18:11:09.388Z,3.60
2022-10-31T18:13:37.197Z,4.07
2022-10-31T18:16:11.961Z,3.92
2022-10-31T18:18:39.128Z,3.58
2022-10-31T18:21:06.211Z,3.95
2022-10-31T18:23:33.041Z,3.60
2022-10-31T18:25:59.854Z,4.22
2022-10-31T18:28:26.685Z,3.80
2022-10-31T18:30:53.480Z,3.90
2022-10-31T18:33:20.351Z,4.97
2022-10-31T18:35:47.195Z,4.07
2022-10-31T18:38:13.944Z,4.40
2022-10-31T18:40:40.817Z,3.60
2022-10-31T18:43:07.721Z,3.40
2022-10-31T18:45:46.377Z,4.13
2022-10-31T18:48:15.320Z,4.18
2022-10-31T18:50:42.442Z,3.60
2022-10-31T18:53:09.968Z,3.85
2022-10-31T18:55:44.134Z,3.72
2022-10-31T18:58:14.438Z,4.10
2022-10-31T19:00:41.464Z,3.80
2022-10-31T19:03:08.212Z,3.72
2022-10-31T19:05:34.993Z,3.40
2022-10-31T19:08:01.955Z,4.13
2022-10-31T19:10:28.726Z,3.80
2022-10-31T19:12:55.507Z,3.97
2022-10-31T19:15:22.373Z,3.17
2022-10-31T19:17:49.462Z,3.15
2022-10-31T19:20:16.266Z,2.90
2022-10-31T19:22:43.161Z,2.85
2022-10-31T19:25:10.963Z,3.35
2022-10-31T19:27:38.416Z,3.08
2022-10-31T19:30:06.405Z,3.00
2022-10-31T19:32:33.579Z,3.30
2022-10-31T19:35:00.475Z,3.30
2022-10-31T19:37:27.253Z,2.88
2022-10-31T19:39:54.085Z,3.00
2022-10-31T19:42:21.108Z,3.38
2022-10-31T19:44:47.876Z,10.43
2022-10-31T19:47:14.623Z,4.43
2022-10-31T19:49:41.395Z,4.25
2022-10-31T19:52:08.189Z,3.05
2022-10-31T19:54:34.986Z,3.13
2022-10-31T19:57:01.732Z,3.38
2022-10-31T19:59:28.550Z,3.50
2022-10-31T20:01:55.398Z,3.67
2022-10-31T20:04:22.390Z,3.22
2022-10-31T20:06:49.204Z,3.42
2022-10-31T20:09:16.239Z,3.65
2022-10-31T20:11:44.650Z,3.30
2022-10-31T20:14:14.253Z,3.15
2022-10-31T20:16:41.658Z,3.53
2022-10-31T20:19:09.216Z,3.67
2022-10-31T20:21:38.765Z,3.45
2022-10-31T20:24:07.754Z,3.30
2022-10-31T20:26:35.437Z,2.95
2022-10-31T20:29:03.542Z,3.72
2022-10-31T20:31:33.389Z,3.28
2022-10-31T20:34:00.416Z,3.30
2022-10-31T20:36:29.669Z,3.42
2022-10-31T20:38:57.621Z,3.63
2022-10-31T20:41:24.707Z,3.10
2022-10-31T20:43:51.486Z,3.53
2022-10-31T20:46:23.713Z,3.22
2022-10-31T20:48:51.045Z,3.35
2022-10-31T20:51:21.609Z,3.83
2022-10-31T20:53:49.379Z,5.53
2022-10-31T20:56:21.282Z,4.15
2022-10-31T20:58:48.711Z,6.10
2022-10-31T21:01:36.196Z,3.10
2022-10-31T21:04:04.633Z,3.58
2022-10-31T21:06:31.894Z,3.05
2022-10-31T21:08:59.217Z,3.55
2022-10-31T21:11:27.735Z,3.70
2022-10-31T21:13:54.913Z,3.67
2022-10-31T21:16:35.931Z,3.58
2022-10-31T21:19:04.504Z,3.63
2022-10-31T21:21:34.359Z,3.30
2022-10-31T21:24:04.807Z,2.97
2022-10-31T21:26:34.400Z,3.15
2022-10-31T21:29:02.566Z,3.22
2022-10-31T21:31:29.558Z,3.13
2022-10-31T21:33:56.414Z,3.05
2022-10-31T21:36:23.370Z,3.40
2022-10-31T21:38:53.378Z,3.60
2022-10-31T21:41:20.965Z,3.38
2022-10-31T21:43:49.954Z,2.97
2022-10-31T21:46:22.771Z,3.20
2022-10-31T21:48:50.127Z,5.22
2022-10-31T21:51:22.696Z,4.03
2022-10-31T21:54:08.489Z,3.20
2022-10-31T21:56:35.962Z,3.30
2022-10-31T21:59:03.091Z,2.95
2022-10-31T22:01:30.209Z,2.70
2022-10-31T22:03:58.323Z,3.35
2022-10-31T22:06:26.702Z,3.40
2022-10-31T22:08:54.526Z,3.10
2022-10-31T22:11:21.941Z,4.00
2022-10-31T22:13:50.130Z,3.17
2022-10-31T22:16:20.128Z,3.28
2022-10-31T22:18:47.875Z,3.40
2022-10-31T22:21:19.870Z,3.40
2022-10-31T22:24:01.798Z,3.60
2022-10-31T22:26:32.769Z,3.33
2022-10-31T22:29:02.291Z,3.50
2022-10-31T22:31:31.041Z,3.70
2022-10-31T22:33:58.102Z,3.80
2022-10-31T22:36:28.132Z,3.95
2022-10-31T22:38:55.423Z,5.47
2022-10-31T22:41:27.442Z,3.90
2022-10-31T22:43:55.601Z,3.70
2022-10-31T22:46:24.584Z,3.95
2022-10-31T22:48:54.002Z,4.25
2022-10-31T22:51:25.074Z,4.75
2022-10-31T22:53:52.338Z,4.32
2022-10-31T22:56:21.143Z,4.70
2022-10-31T22:58:49.519Z,4.47
2022-10-31T23:01:19.021Z,4.35
2022-10-31T23:03:46.630Z,4.55
2022-10-31T23:06:15.916Z,4.07
2022-10-31T23:08:43.127Z,4.70
2022-10-31T23:11:24.738Z,5.13
2022-10-31T23:14:09.381Z,4.50
2022-10-31T23:16:41.038Z,4.10
2022-10-31T23:19:18.155Z,4.03
2022-10-31T23:21:57.401Z,4.03
2022-10-31T23:24:32.082Z,3.95
2022-10-31T23:27:09.137Z,3.78
2022-10-31T23:29:35.926Z,4.22
2022-10-31T23:32:03.164Z,3.80
2022-10-31T23:34:29.965Z,3.83
2022-10-31T23:36:56.954Z,3.97
2022-10-31T23:39:25.182Z,3.58
2022-10-31T23:41:52.375Z,3.63
2022-10-31T23:44:19.158Z,3.47
2022-10-31T23:46:45.988Z,3.78
2022-10-31T23:49:12.842Z,3.88
2022-10-31T23:51:40.017Z,3.45
2022-10-31T23:54:07.133Z,3.25
2022-10-31T23:56:33.953Z,3.42
2022-10-31T23:59:01.042Z,4.40
